sensor_id;sensor_type;location;lat;lon;timestamp;P1;P2;P0
72307;PMS5003;60257;42.638;23.376;2023-10-08T00:01:49;8.00;8.00;6.00
72307;PMS5003;60257;42.638;23.376;2023-10-08T00:04:16;12.33;12.00;8.00
72307;PMS5003;60257;42.638;23.376;2023-10-08T00:06:44;12.67;12.67;6.00
72307;PMS5003;60257;42.638;23.376;2023-10-08T00:09:10;11.00;10.00;6.33
72307;PMS5003;60257;42.638;23.376;2023-10-08T00:11:37;9.33;8.00;5.33
72307;PMS5003;60257;42.638;23.376;2023-10-08T00:14:04;11.33;11.33;7.00
72307;PMS5003;60257;42.638;23.376;2023-10-08T00:19:17;10.00;10.00;5.33
72307;PMS5003;60257;42.638;23.376;2023-10-08T00:21:43;14.67;12.00;8.00
72307;PMS5003;60257;42.638;23.376;2023-10-08T00:24:10;12.67;12.67;8.00
72307;PMS5003;60257;42.638;23.376;2023-10-08T00:26:37;10.00;10.00;6.33
72307;PMS5003;60257;42.638;23.376;2023-10-08T00:29:06;10.00;10.00;5.33
72307;PMS5003;60257;42.638;23.376;2023-10-08T00:31:46;9.33;6.00;3.33
72307;PMS5003;60257;42.638;23.376;2023-10-08T00:34:14;9.00;9.00;6.00
72307;PMS5003;60257;42.638;23.376;2023-10-08T00:36:43;12.33;10.67;6.33
72307;PMS5003;60257;42.638;23.376;2023-10-08T00:39:10;11.00;10.67;6.00
72307;PMS5003;60257;42.638;23.376;2023-10-08T00:41:43;10.00;9.00;5.33
72307;PMS5003;60257;42.638;23.376;2023-10-08T00:44:10;11.67;9.33;6.67
72307;PMS5003;60257;42.638;23.376;2023-10-08T00:46:49;10.00;10.00;6.00
72307;PMS5003;60257;42.638;23.376;2023-10-08T00:49:24;8.00;7.00;6.00
72307;PMS5003;60257;42.638;23.376;2023-10-08T00:52:13;9.00;8.00;5.00
72307;PMS5003;60257;42.638;23.376;2023-10-08T00:54:40;12.33;10.67;5.00
72307;PMS5003;60257;42.638;23.376;2023-10-08T00:57:22;9.00;9.00;5.00
72307;PMS5003;60257;42.638;23.376;2023-10-08T00:59:51;10.00;8.33;4.33
72307;PMS5003;60257;42.638;23.376;2023-10-08T01:02:21;12.33;10.67;5.33
72307;PMS5003;60257;42.638;23.376;2023-10-08T01:04:51;10.00;8.67;4.00
72307;PMS5003;60257;42.638;23.376;2023-10-08T01:07:17;6.67;6.67;6.00
72307;PMS5003;60257;42.638;23.376;2023-10-08T01:09:43;10.33;9.67;6.00
72307;PMS5003;60257;42.638;23.376;2023-10-08T01:12:20;12.00;10.00;5.00
72307;PMS5003;60257;42.638;23.376;2023-10-08T01:14:55;7.00;7.00;4.33
72307;PMS5003;60257;42.638;23.376;2023-10-08T01:17:32;9.33;8.00;6.00
72307;PMS5003;60257;42.638;23.376;2023-10-08T01:20:04;10.67;9.00;3.00
72307;PMS5003;60257;42.638;23.376;2023-10-08T01:22:50;7.33;7.00;4.00
72307;PMS5003;60257;42.638;23.376;2023-10-08T01:25:16;9.33;9.33;4.00
72307;PMS5003;60257;42.638;23.376;2023-10-08T01:27:48;9.67;8.33;4.00
72307;PMS5003;60257;42.638;23.376;2023-10-08T01:30:14;8.33;8.33;4.33
72307;PMS5003;60257;42.638;23.376;2023-10-08T01:32:45;8.00;7.00;4.00
72307;PMS5003;60257;42.638;23.376;2023-10-08T01:35:11;7.00;7.00;5.00
72307;PMS5003;60257;42.638;23.376;2023-10-08T01:37:49;8.33;8.33;5.67
72307;PMS5003;60257;42.638;23.376;2023-10-08T01:40:15;9.00;8.33;5.00
72307;PMS5003;60257;42.638;23.376;2023-10-08T01:42:41;9.00;9.00;5.33
72307;PMS5003;60257;42.638;23.376;2023-10-08T01:45:07;9.00;7.00;4.00
72307;PMS5003;60257;42.638;23.376;2023-10-08T01:47:37;7.00;7.00;3.33
72307;PMS5003;60257;42.638;23.376;2023-10-08T01:50:03;10.67;10.33;5.67
72307;PMS5003;60257;42.638;23.376;2023-10-08T01:52:46;6.67;5.33;4.00
72307;PMS5003;60257;42.638;23.376;2023-10-08T01:55:16;10.67;8.67;5.67
72307;PMS5003;60257;42.638;23.376;2023-10-08T01:57:43;10.00;9.00;5.00
72307;PMS5003;60257;42.638;23.376;2023-10-08T02:00:12;8.00;8.00;4.00
72307;PMS5003;60257;42.638;23.376;2023-10-08T02:02:48;9.67;8.33;5.67
72307;PMS5003;60257;42.638;23.376;2023-10-08T02:05:15;8.00;8.00;5.00
72307;PMS5003;60257;42.638;23.376;2023-10-08T02:07:44;10.00;9.33;5.67
72307;PMS5003;60257;42.638;23.376;2023-10-08T02:10:10;8.33;8.33;5.33
72307;PMS5003;60257;42.638;23.376;2023-10-08T02:12:38;11.00;9.33;5.33
72307;PMS5003;60257;42.638;23.376;2023-10-08T02:15:04;9.33;9.33;5.00
72307;PMS5003;60257;42.638;23.376;2023-10-08T02:17:31;9.33;9.33;5.00
72307;PMS5003;60257;42.638;23.376;2023-10-08T02:19:57;12.00;8.67;5.00
72307;PMS5003;60257;42.638;23.376;2023-10-08T02:22:23;7.67;7.67;4.33
72307;PMS5003;60257;42.638;23.376;2023-10-08T02:24:48;11.33;10.00;6.00
72307;PMS5003;60257;42.638;23.376;2023-10-08T02:27:15;12.00;12.00;7.33
72307;PMS5003;60257;42.638;23.376;2023-10-08T02:29:41;11.67;11.67;7.33
72307;PMS5003;60257;42.638;23.376;2023-10-08T02:32:07;14.33;11.00;6.00
72307;PMS5003;60257;42.638;23.376;2023-10-08T02:34:33;8.00;8.00;6.00
72307;PMS5003;60257;42.638;23.376;2023-10-08T02:37:00;9.67;9.67;6.00
72307;PMS5003;60257;42.638;23.376;2023-10-08T02:39:28;8.33;7.33;3.00
72307;PMS5003;60257;42.638;23.376;2023-10-08T02:41:55;10.67;10.00;6.00
72307;PMS5003;60257;42.638;23.376;2023-10-08T02:44:24;10.33;8.00;5.67
72307;PMS5003;60257;42.638;23.376;2023-10-08T02:46:51;8.00;8.00;5.00
72307;PMS5003;60257;42.638;23.376;2023-10-08T02:49:18;9.67;7.67;5.00
72307;PMS5003;60257;42.638;23.376;2023-10-08T02:51:51;7.00;7.00;5.00
72307;PMS5003;60257;42.638;23.376;2023-10-08T02:54:18;9.67;8.33;5.00
72307;PMS5003;60257;42.638;23.376;2023-10-08T02:56:57;9.00;8.33;5.00
72307;PMS5003;60257;42.638;23.376;2023-10-08T02:59:29;9.00;9.00;6.00
72307;PMS5003;60257;42.638;23.376;2023-10-08T03:02:05;7.67;7.67;3.33
72307;PMS5003;60257;42.638;23.376;2023-10-08T03:04:39;7.00;7.00;3.33
72307;PMS5003;60257;42.638;23.376;2023-10-08T03:07:05;7.00;7.00;4.67
72307;PMS5003;60257;42.638;23.376;2023-10-08T03:09:36;14.00;12.00;6.00
72307;PMS5003;60257;42.638;23.376;2023-10-08T03:12:06;5.00;3.00;0.00
72307;PMS5003;60257;42.638;23.376;2023-10-08T03:14:35;9.67;7.67;5.00
72307;PMS5003;60257;42.638;23.376;2023-10-08T03:17:13;11.67;10.00;5.00
72307;PMS5003;60257;42.638;23.376;2023-10-08T03:19:44;12.33;9.67;6.00
72307;PMS5003;60257;42.638;23.376;2023-10-08T03:22:10;8.67;8.33;5.00
72307;PMS5003;60257;42.638;23.376;2023-10-08T03:24:37;10.33;8.33;5.00
72307;PMS5003;60257;42.638;23.376;2023-10-08T03:27:03;7.67;6.67;3.67
72307;PMS5003;60257;42.638;23.376;2023-10-08T03:29:40;9.33;7.67;5.00
72307;PMS5003;60257;42.638;23.376;2023-10-08T03:32:10;8.33;7.67;4.00
72307;PMS5003;60257;42.638;23.376;2023-10-08T03:34:44;10.33;10.33;6.33
72307;PMS5003;60257;42.638;23.376;2023-10-08T03:37:11;10.33;8.67;5.67
72307;PMS5003;60257;42.638;23.376;2023-10-08T03:39:45;9.33;9.33;6.00
72307;PMS5003;60257;42.638;23.376;2023-10-08T03:42:24;7.33;7.33;5.00
72307;PMS5003;60257;42.638;23.376;2023-10-08T03:44:50;7.33;7.33;5.00
72307;PMS5003;60257;42.638;23.376;2023-10-08T03:47:17;13.00;10.67;7.00
72307;PMS5003;60257;42.638;23.376;2023-10-08T03:49:51;8.00;7.00;5.00
72307;PMS5003;60257;42.638;23.376;2023-10-08T03:52:17;7.67;7.33;4.67
72307;PMS5003;60257;42.638;23.376;2023-10-08T03:54:48;13.67;12.67;7.00
72307;PMS5003;60257;42.638;23.376;2023-10-08T03:57:14;13.00;13.00;7.33
72307;PMS5003;60257;42.638;23.376;2023-10-08T03:59:50;12.00;12.00;7.33
72307;PMS5003;60257;42.638;23.376;2023-10-08T04:02:20;4.33;4.33;0.00
72307;PMS5003;60257;42.638;23.376;2023-10-08T04:04:58;12.00;12.00;7.00
72307;PMS5003;60257;42.638;23.376;2023-10-08T04:07:25;12.67;12.33;6.00
72307;PMS5003;60257;42.638;23.376;2023-10-08T04:10:04;13.33;13.00;8.00
72307;PMS5003;60257;42.638;23.376;2023-10-08T04:12:33;12.00;12.00;6.33
72307;PMS5003;60257;42.638;23.376;2023-10-08T04:15:09;13.00;12.67;7.33
72307;PMS5003;60257;42.638;23.376;2023-10-08T04:17:37;13.00;13.00;9.33
72307;PMS5003;60257;42.638;23.376;2023-10-08T04:20:12;15.33;15.33;9.33
72307;PMS5003;60257;42.638;23.376;2023-10-08T04:22:57;8.00;8.00;6.00
72307;PMS5003;60257;42.638;23.376;2023-10-08T04:25:27;10.33;10.00;5.00
72307;PMS5003;60257;42.638;23.376;2023-10-08T04:27:56;10.00;10.00;6.00
72307;PMS5003;60257;42.638;23.376;2023-10-08T04:30:25;12.00;12.00;6.67
72307;PMS5003;60257;42.638;23.376;2023-10-08T04:33:01;15.00;14.00;7.33
72307;PMS5003;60257;42.638;23.376;2023-10-08T04:35:34;13.33;12.00;6.67
72307;PMS5003;60257;42.638;23.376;2023-10-08T04:38:27;13.00;12.00;7.00
72307;PMS5003;60257;42.638;23.376;2023-10-08T04:40:55;16.67;12.67;7.00
72307;PMS5003;60257;42.638;23.376;2023-10-08T04:43:26;12.00;11.00;6.00
72307;PMS5003;60257;42.638;23.376;2023-10-08T04:45:55;14.33;12.33;7.00
72307;PMS5003;60257;42.638;23.376;2023-10-08T04:48:22;14.67;14.00;8.33
72307;PMS5003;60257;42.638;23.376;2023-10-08T04:50:49;18.00;16.00;7.33
72307;PMS5003;60257;42.638;23.376;2023-10-08T04:53:23;13.67;13.00;8.00
72307;PMS5003;60257;42.638;23.376;2023-10-08T04:55:56;11.00;8.33;5.33
72307;PMS5003;60257;42.638;23.376;2023-10-08T04:58:22;12.67;11.00;6.00
72307;PMS5003;60257;42.638;23.376;2023-10-08T05:00:58;12.67;12.67;6.00
72307;PMS5003;60257;42.638;23.376;2023-10-08T05:03:42;17.67;15.67;8.33
72307;PMS5003;60257;42.638;23.376;2023-10-08T05:06:23;15.00;12.00;7.00
72307;PMS5003;60257;42.638;23.376;2023-10-08T05:09:02;17.67;16.00;10.67
72307;PMS5003;60257;42.638;23.376;2023-10-08T05:11:44;7.00;5.00;2.00
72307;PMS5003;60257;42.638;23.376;2023-10-08T05:14:22;15.67;14.00;8.33
72307;PMS5003;60257;42.638;23.376;2023-10-08T05:16:58;14.33;14.33;8.00
72307;PMS5003;60257;42.638;23.376;2023-10-08T05:19:43;12.00;10.67;8.00
72307;PMS5003;60257;42.638;23.376;2023-10-08T05:22:27;18.33;18.33;13.33
72307;PMS5003;60257;42.638;23.376;2023-10-08T05:24:52;6.33;6.00;1.00
72307;PMS5003;60257;42.638;23.376;2023-10-08T05:27:56;12.00;10.33;5.00
72307;PMS5003;60257;42.638;23.376;2023-10-08T05:30:26;16.67;16.67;10.67
72307;PMS5003;60257;42.638;23.376;2023-10-08T05:32:53;15.33;13.00;8.33
72307;PMS5003;60257;42.638;23.376;2023-10-08T05:35:34;16.67;15.00;9.00
72307;PMS5003;60257;42.638;23.376;2023-10-08T05:38:07;17.00;15.67;10.33
72307;PMS5003;60257;42.638;23.376;2023-10-08T05:40:47;13.00;13.00;7.00
72307;PMS5003;60257;42.638;23.376;2023-10-08T05:43:26;15.33;14.33;8.00
72307;PMS5003;60257;42.638;23.376;2023-10-08T05:46:11;10.00;9.00;7.00
72307;PMS5003;60257;42.638;23.376;2023-10-08T05:48:50;15.67;15.67;8.67
72307;PMS5003;60257;42.638;23.376;2023-10-08T05:51:28;13.67;10.67;8.00
72307;PMS5003;60257;42.638;23.376;2023-10-08T05:54:12;21.33;20.67;13.33
72307;PMS5003;60257;42.638;23.376;2023-10-08T05:56:58;20.00;18.00;13.33
72307;PMS5003;60257;42.638;23.376;2023-10-08T06:00:03;20.67;18.00;10.00
72307;PMS5003;60257;42.638;23.376;2023-10-08T06:02:30;15.00;15.00;7.33
72307;PMS5003;60257;42.638;23.376;2023-10-08T06:05:03;14.67;11.00;7.00
72307;PMS5003;60257;42.638;23.376;2023-10-08T06:10:13;11.33;10.00;6.33
72307;PMS5003;60257;42.638;23.376;2023-10-08T06:15:44;11.00;11.00;5.67
72307;PMS5003;60257;42.638;23.376;2023-10-08T06:18:17;11.33;11.33;7.33
72307;PMS5003;60257;42.638;23.376;2023-10-08T06:20:44;14.33;12.33;8.00
72307;PMS5003;60257;42.638;23.376;2023-10-08T06:23:17;13.67;12.33;7.67
72307;PMS5003;60257;42.638;23.376;2023-10-08T06:25:46;7.33;7.00;3.00
72307;PMS5003;60257;42.638;23.376;2023-10-08T06:30:48;11.00;10.33;6.00
72307;PMS5003;60257;42.638;23.376;2023-10-08T06:33:15;14.33;13.00;9.00
72307;PMS5003;60257;42.638;23.376;2023-10-08T06:35:44;14.33;14.00;7.00
72307;PMS5003;60257;42.638;23.376;2023-10-08T06:38:10;12.33;11.67;7.00
72307;PMS5003;60257;42.638;23.376;2023-10-08T06:40:36;10.33;10.33;5.67
72307;PMS5003;60257;42.638;23.376;2023-10-08T06:43:03;8.33;8.33;6.00
72307;PMS5003;60257;42.638;23.376;2023-10-08T06:45:46;14.33;12.00;7.00
72307;PMS5003;60257;42.638;23.376;2023-10-08T06:48:11;16.33;15.67;11.33
72307;PMS5003;60257;42.638;23.376;2023-10-08T06:50:44;13.33;13.33;7.00
72307;PMS5003;60257;42.638;23.376;2023-10-08T06:53:10;15.33;14.00;9.00
72307;PMS5003;60257;42.638;23.376;2023-10-08T06:55:39;16.00;14.00;9.00
72307;PMS5003;60257;42.638;23.376;2023-10-08T06:58:05;12.00;12.00;9.00
72307;PMS5003;60257;42.638;23.376;2023-10-08T07:00:37;19.33;17.00;9.33
72307;PMS5003;60257;42.638;23.376;2023-10-08T07:03:12;13.00;13.00;8.33
72307;PMS5003;60257;42.638;23.376;2023-10-08T07:05:45;17.33;17.33;10.00
72307;PMS5003;60257;42.638;23.376;2023-10-08T07:08:26;17.00;16.00;10.00
72307;PMS5003;60257;42.638;23.376;2023-10-08T07:10:56;20.00;15.33;10.00
72307;PMS5003;60257;42.638;23.376;2023-10-08T07:13:24;17.33;17.33;10.67
72307;PMS5003;60257;42.638;23.376;2023-10-08T07:15:50;21.67;20.33;12.67
72307;PMS5003;60257;42.638;23.376;2023-10-08T07:18:17;24.00;21.67;14.00
72307;PMS5003;60257;42.638;23.376;2023-10-08T07:20:54;18.67;18.67;11.67
72307;PMS5003;60257;42.638;23.376;2023-10-08T07:23:25;15.33;15.33;10.67
72307;PMS5003;60257;42.638;23.376;2023-10-08T07:28:36;19.33;18.00;11.33
72307;PMS5003;60257;42.638;23.376;2023-10-08T07:31:14;19.67;18.33;10.00
72307;PMS5003;60257;42.638;23.376;2023-10-08T07:33:45;18.33;15.67;11.67
72307;PMS5003;60257;42.638;23.376;2023-10-08T07:36:12;20.33;20.33;13.00
72307;PMS5003;60257;42.638;23.376;2023-10-08T07:38:42;20.33;18.00;11.67
72307;PMS5003;60257;42.638;23.376;2023-10-08T07:41:09;16.33;15.00;9.33
72307;PMS5003;60257;42.638;23.376;2023-10-08T07:43:42;22.67;20.33;12.33
72307;PMS5003;60257;42.638;23.376;2023-10-08T07:46:09;19.67;19.33;14.00
72307;PMS5003;60257;42.638;23.376;2023-10-08T07:48:35;22.33;20.67;14.67
72307;PMS5003;60257;42.638;23.376;2023-10-08T07:51:07;19.00;18.33;12.00
72307;PMS5003;60257;42.638;23.376;2023-10-08T07:53:32;24.00;21.33;15.00
72307;PMS5003;60257;42.638;23.376;2023-10-08T07:56:06;26.67;24.00;15.67
72307;PMS5003;60257;42.638;23.376;2023-10-08T07:58:32;27.00;23.33;15.67
72307;PMS5003;60257;42.638;23.376;2023-10-08T08:01:02;20.00;18.33;13.00
72307;PMS5003;60257;42.638;23.376;2023-10-08T08:03:33;22.67;21.33;13.67
72307;PMS5003;60257;42.638;23.376;2023-10-08T08:06:02;23.33;20.33;14.33
72307;PMS5003;60257;42.638;23.376;2023-10-08T08:08:32;33.33;24.67;16.00
72307;PMS5003;60257;42.638;23.376;2023-10-08T08:11:02;25.33;22.00;14.33
72307;PMS5003;60257;42.638;23.376;2023-10-08T08:13:31;24.33;21.33;13.33
72307;PMS5003;60257;42.638;23.376;2023-10-08T08:15:58;24.33;23.33;13.67
72307;PMS5003;60257;42.638;23.376;2023-10-08T08:18:34;17.67;17.00;8.67
72307;PMS5003;60257;42.638;23.376;2023-10-08T08:21:03;21.25;19.75;12.25
72307;PMS5003;60257;42.638;23.376;2023-10-08T08:23:30;20.75;17.50;11.50
72307;PMS5003;60257;42.638;23.376;2023-10-08T08:25:56;18.00;16.00;8.75
72307;PMS5003;60257;42.638;23.376;2023-10-08T08:28:36;16.75;15.50;8.25
72307;PMS5003;60257;42.638;23.376;2023-10-08T08:31:02;19.75;18.00;12.00
72307;PMS5003;60257;42.638;23.376;2023-10-08T08:33:41;13.50;11.00;6.00
72307;PMS5003;60257;42.638;23.376;2023-10-08T08:36:22;15.50;12.50;8.25
72307;PMS5003;60257;42.638;23.376;2023-10-08T08:38:48;11.75;11.25;6.50
72307;PMS5003;60257;42.638;23.376;2023-10-08T08:41:14;11.75;11.50;7.00
72307;PMS5003;60257;42.638;23.376;2023-10-08T08:43:52;9.75;9.75;4.50
72307;PMS5003;60257;42.638;23.376;2023-10-08T08:46:30;14.25;8.25;4.75
72307;PMS5003;60257;42.638;23.376;2023-10-08T08:49:15;6.75;6.75;4.25
72307;PMS5003;60257;42.638;23.376;2023-10-08T08:51:43;10.00;10.00;5.75
72307;PMS5003;60257;42.638;23.376;2023-10-08T08:54:13;12.25;10.25;6.50
72307;PMS5003;60257;42.638;23.376;2023-10-08T08:56:41;7.25;7.00;4.50
72307;PMS5003;60257;42.638;23.376;2023-10-08T08:59:09;8.75;8.75;4.00
72307;PMS5003;60257;42.638;23.376;2023-10-08T09:01:40;11.00;9.75;6.00
72307;PMS5003;60257;42.638;23.376;2023-10-08T09:04:07;11.25;8.25;4.00
72307;PMS5003;60257;42.638;23.376;2023-10-08T09:06:33;6.75;6.75;3.00
72307;PMS5003;60257;42.638;23.376;2023-10-08T09:09:06;11.75;8.25;3.50
72307;PMS5003;60257;42.638;23.376;2023-10-08T09:11:50;9.50;9.00;3.50
72307;PMS5003;60257;42.638;23.376;2023-10-08T09:14:23;9.00;8.50;5.00
72307;PMS5003;60257;42.638;23.376;2023-10-08T09:16:50;5.50;5.50;3.00
72307;PMS5003;60257;42.638;23.376;2023-10-08T09:19:17;8.50;8.00;4.25
72307;PMS5003;60257;42.638;23.376;2023-10-08T09:24:29;9.25;8.00;4.00
72307;PMS5003;60257;42.638;23.376;2023-10-08T09:26:55;7.00;6.25;3.00
72307;PMS5003;60257;42.638;23.376;2023-10-08T09:29:23;10.25;9.00;4.75
72307;PMS5003;60257;42.638;23.376;2023-10-08T09:31:55;8.50;8.00;4.00
72307;PMS5003;60257;42.638;23.376;2023-10-08T09:34:22;9.75;7.75;3.25
72307;PMS5003;60257;42.638;23.376;2023-10-08T09:36:52;10.25;10.00;6.25
72307;PMS5003;60257;42.638;23.376;2023-10-08T09:39:18;8.75;8.00;3.25
72307;PMS5003;60257;42.638;23.376;2023-10-08T09:41:49;9.25;8.25;4.25
72307;PMS5003;60257;42.638;23.376;2023-10-08T09:44:17;10.50;7.50;4.00
72307;PMS5003;60257;42.638;23.376;2023-10-08T09:46:44;8.50;7.75;3.00
72307;PMS5003;60257;42.638;23.376;2023-10-08T09:49:17;10.75;9.00;5.75
72307;PMS5003;60257;42.638;23.376;2023-10-08T09:51:49;11.25;7.75;3.25
72307;PMS5003;60257;42.638;23.376;2023-10-08T09:54:23;8.00;8.00;6.00
72307;PMS5003;60257;42.638;23.376;2023-10-08T09:56:58;7.00;7.00;3.00
72307;PMS5003;60257;42.638;23.376;2023-10-08T09:59:24;10.50;8.75;3.50
72307;PMS5003;60257;42.638;23.376;2023-10-08T10:01:52;9.00;9.00;5.00
72307;PMS5003;60257;42.638;23.376;2023-10-08T10:04:24;8.00;6.75;3.00
72307;PMS5003;60257;42.638;23.376;2023-10-08T10:06:50;11.75;10.00;5.25
72307;PMS5003;60257;42.638;23.376;2023-10-08T10:09:25;10.75;10.00;4.25
72307;PMS5003;60257;42.638;23.376;2023-10-08T10:11:52;12.00;8.75;4.00
72307;PMS5003;60257;42.638;23.376;2023-10-08T10:14:23;11.25;8.50;5.25
72307;PMS5003;60257;42.638;23.376;2023-10-08T10:17:13;7.25;7.25;4.75
72307;PMS5003;60257;42.638;23.376;2023-10-08T10:19:56;12.50;7.00;4.25
72307;PMS5003;60257;42.638;23.376;2023-10-08T10:22:32;8.75;8.50;5.00
72307;PMS5003;60257;42.638;23.376;2023-10-08T10:25:02;7.00;5.00;4.25
72307;PMS5003;60257;42.638;23.376;2023-10-08T10:28:27;9.25;7.50;4.75
72307;PMS5003;60257;42.638;23.376;2023-10-08T10:30:33;7.00;7.00;4.00
72307;PMS5003;60257;42.638;23.376;2023-10-08T10:33:02;7.50;6.00;4.00
72307;PMS5003;60257;42.638;23.376;2023-10-08T10:35:30;7.25;7.25;3.25
72307;PMS5003;60257;42.638;23.376;2023-10-08T10:37:57;6.75;6.75;4.25
72307;PMS5003;60257;42.638;23.376;2023-10-08T10:40:28;8.75;8.75;3.75
72307;PMS5003;60257;42.638;23.376;2023-10-08T10:43:04;6.25;5.25;3.50
72307;PMS5003;60257;42.638;23.376;2023-10-08T10:45:34;10.00;9.25;3.75
72307;PMS5003;60257;42.638;23.376;2023-10-08T10:48:08;8.00;6.75;3.00
72307;PMS5003;60257;42.638;23.376;2023-10-08T10:50:41;9.50;7.50;4.00
72307;PMS5003;60257;42.638;23.376;2023-10-08T10:53:25;7.25;7.25;3.25
72307;PMS5003;60257;42.638;23.376;2023-10-08T10:55:53;8.00;7.25;3.25
72307;PMS5003;60257;42.638;23.376;2023-10-08T10:58:28;8.50;6.75;3.75
72307;PMS5003;60257;42.638;23.376;2023-10-08T11:01:03;5.75;5.75;3.50
72307;PMS5003;60257;42.638;23.376;2023-10-08T11:03:48;7.00;6.00;2.00
72307;PMS5003;60257;42.638;23.376;2023-10-08T11:06:16;8.50;7.50;4.00
72307;PMS5003;60257;42.638;23.376;2023-10-08T11:08:48;2.00;2.00;0.00
72307;PMS5003;60257;42.638;23.376;2023-10-08T11:11:19;7.00;5.75;2.75
72307;PMS5003;60257;42.638;23.376;2023-10-08T11:13:54;9.25;7.50;4.00
72307;PMS5003;60257;42.638;23.376;2023-10-08T11:16:25;7.75;7.00;4.00
72307;PMS5003;60257;42.638;23.376;2023-10-08T11:18:52;6.25;6.25;3.00
72307;PMS5003;60257;42.638;23.376;2023-10-08T11:21:23;7.00;6.75;4.00
72307;PMS5003;60257;42.638;23.376;2023-10-08T11:23:49;7.00;7.00;4.00
72307;PMS5003;60257;42.638;23.376;2023-10-08T11:26:23;6.25;5.00;3.00
72307;PMS5003;60257;42.638;23.376;2023-10-08T11:29:04;8.00;6.50;3.00
72307;PMS5003;60257;42.638;23.376;2023-10-08T11:31:31;6.75;5.00;2.00
72307;PMS5003;60257;42.638;23.376;2023-10-08T11:34:00;7.25;5.75;3.00
72307;PMS5003;60257;42.638;23.376;2023-10-08T11:36:33;4.00;1.00;0.00
72307;PMS5003;60257;42.638;23.376;2023-10-08T11:39:08;6.75;5.75;4.00
72307;PMS5003;60257;42.638;23.376;2023-10-08T11:41:36;7.75;6.25;3.75
72307;PMS5003;60257;42.638;23.376;2023-10-08T11:44:18;7.25;5.00;2.00
72307;PMS5003;60257;42.638;23.376;2023-10-08T11:46:48;9.25;8.50;4.00
72307;PMS5003;60257;42.638;23.376;2023-10-08T11:49:18;5.75;4.50;3.00
72307;PMS5003;60257;42.638;23.376;2023-10-08T11:51:45;8.50;6.00;3.00
72307;PMS5003;60257;42.638;23.376;2023-10-08T11:54:11;10.00;9.00;4.00
72307;PMS5003;60257;42.638;23.376;2023-10-08T11:56:37;10.00;6.75;3.50
72307;PMS5003;60257;42.638;23.376;2023-10-08T11:59:04;7.25;7.00;3.00
72307;PMS5003;60257;42.638;23.376;2023-10-08T12:01:37;7.50;6.50;4.25
72307;PMS5003;60257;42.638;23.376;2023-10-08T12:04:07;7.00;7.00;3.00
72307;PMS5003;60257;42.638;23.376;2023-10-08T12:06:43;8.25;7.50;3.25
72307;PMS5003;60257;42.638;23.376;2023-10-08T12:09:12;7.00;7.00;3.25
72307;PMS5003;60257;42.638;23.376;2023-10-08T12:11:39;5.50;5.00;2.00
72307;PMS5003;60257;42.638;23.376;2023-10-08T12:14:05;8.00;7.00;2.00
72307;PMS5003;60257;42.638;23.376;2023-10-08T12:16:30;4.00;2.00;0.00
72307;PMS5003;60257;42.638;23.376;2023-10-08T12:19:00;10.00;8.00;5.75
72307;PMS5003;60257;42.638;23.376;2023-10-08T12:21:27;6.75;6.25;3.00
72307;PMS5003;60257;42.638;23.376;2023-10-08T12:23:59;10.50;9.75;5.00
72307;PMS5003;60257;42.638;23.376;2023-10-08T12:26:30;7.00;6.75;3.75
72307;PMS5003;60257;42.638;23.376;2023-10-08T12:28:56;8.75;7.25;3.50
72307;PMS5003;60257;42.638;23.376;2023-10-08T12:31:22;10.50;10.00;4.50
72307;PMS5003;60257;42.638;23.376;2023-10-08T12:33:49;11.75;8.00;5.75
72307;PMS5003;60257;42.638;23.376;2023-10-08T12:36:21;8.50;5.00;2.00
72307;PMS5003;60257;42.638;23.376;2023-10-08T12:38:52;11.50;9.50;4.25
72307;PMS5003;60257;42.638;23.376;2023-10-08T12:41:24;13.25;9.50;4.50
72307;PMS5003;60257;42.638;23.376;2023-10-08T12:43:53;11.25;9.00;5.00
72307;PMS5003;60257;42.638;23.376;2023-10-08T12:46:19;3.50;3.50;1.75
72307;PMS5003;60257;42.638;23.376;2023-10-08T12:48:51;9.50;6.50;3.00
72307;PMS5003;60257;42.638;23.376;2023-10-08T12:51:19;8.75;6.25;4.00
72307;PMS5003;60257;42.638;23.376;2023-10-08T12:53:49;10.00;8.00;3.75
72307;PMS5003;60257;42.638;23.376;2023-10-08T12:56:28;11.00;5.75;2.75
72307;PMS5003;60257;42.638;23.376;2023-10-08T12:58:57;4.50;4.50;3.25
72307;PMS5003;60257;42.638;23.376;2023-10-08T13:01:24;9.00;6.50;2.00
72307;PMS5003;60257;42.638;23.376;2023-10-08T13:03:54;8.50;7.25;4.50
72307;PMS5003;60257;42.638;23.376;2023-10-08T13:06:25;11.75;8.00;3.75
72307;PMS5003;60257;42.638;23.376;2023-10-08T13:09:03;8.75;6.25;3.25
72307;PMS5003;60257;42.638;23.376;2023-10-08T13:11:37;8.75;7.75;3.25
72307;PMS5003;60257;42.638;23.376;2023-10-08T13:14:04;9.25;6.50;3.25
72307;PMS5003;60257;42.638;23.376;2023-10-08T13:16:30;6.75;5.00;3.00
72307;PMS5003;60257;42.638;23.376;2023-10-08T13:19:02;10.75;5.50;2.00
72307;PMS5003;60257;42.638;23.376;2023-10-08T13:21:28;9.75;6.25;3.00
72307;PMS5003;60257;42.638;23.376;2023-10-08T13:23:54;8.75;7.00;2.25
72307;PMS5003;60257;42.638;23.376;2023-10-08T13:26:25;9.00;8.75;4.00
72307;PMS5003;60257;42.638;23.376;2023-10-08T13:28:56;11.75;7.50;3.00
72307;PMS5003;60257;42.638;23.376;2023-10-08T13:31:23;12.00;9.50;3.00
72307;PMS5003;60257;42.638;23.376;2023-10-08T13:33:50;7.50;7.50;2.00
72307;PMS5003;60257;42.638;23.376;2023-10-08T13:36:17;6.75;6.00;2.75
72307;PMS5003;60257;42.638;23.376;2023-10-08T13:38:43;7.00;5.00;3.00
72307;PMS5003;60257;42.638;23.376;2023-10-08T13:41:11;7.00;4.25;1.00
72307;PMS5003;60257;42.638;23.376;2023-10-08T13:43:41;5.50;5.00;2.00
72307;PMS5003;60257;42.638;23.376;2023-10-08T13:46:14;5.75;4.50;2.50
72307;PMS5003;60257;42.638;23.376;2023-10-08T13:48:42;8.00;7.50;4.00
72307;PMS5003;60257;42.638;23.376;2023-10-08T13:51:18;7.25;5.25;3.50
72307;PMS5003;60257;42.638;23.376;2023-10-08T13:53:52;8.75;6.00;2.00
72307;PMS5003;60257;42.638;23.376;2023-10-08T13:56:19;9.00;7.25;3.50
72307;PMS5003;60257;42.638;23.376;2023-10-08T13:58:51;7.50;6.75;3.00
72307;PMS5003;60257;42.638;23.376;2023-10-08T14:01:21;9.50;8.25;4.00
72307;PMS5003;60257;42.638;23.376;2023-10-08T14:03:50;29.25;26.25;13.50
72307;PMS5003;60257;42.638;23.376;2023-10-08T14:06:21;9.50;6.75;3.50
72307;PMS5003;60257;42.638;23.376;2023-10-08T14:08:47;7.75;7.75;3.50
72307;PMS5003;60257;42.638;23.376;2023-10-08T14:11:20;11.25;9.25;5.00
72307;PMS5003;60257;42.638;23.376;2023-10-08T14:13:52;9.25;9.25;6.25
72307;PMS5003;60257;42.638;23.376;2023-10-08T14:16:18;22.00;18.50;11.50
72307;PMS5003;60257;42.638;23.376;2023-10-08T14:18:49;25.00;20.25;11.00
72307;PMS5003;60257;42.638;23.376;2023-10-08T14:21:19;13.50;13.50;7.25
72307;PMS5003;60257;42.638;23.376;2023-10-08T14:23:55;7.25;6.75;4.00
72307;PMS5003;60257;42.638;23.376;2023-10-08T14:26:22;7.25;5.50;3.00
72307;PMS5003;60257;42.638;23.376;2023-10-08T14:28:48;7.00;6.25;4.00
72307;PMS5003;60257;42.638;23.376;2023-10-08T14:31:19;28.25;21.25;11.25
72307;PMS5003;60257;42.638;23.376;2023-10-08T14:33:48;14.50;13.25;6.75
72307;PMS5003;60257;42.638;23.376;2023-10-08T14:36:34;15.50;11.50;6.00